Weather History for PAJC - February, 2014

Change the Weather History Date:

Saturday, February 1, 2014

  Actual Average Record
Temperature  
Mean Temperature 34 °F -  
Max Temperature 39 °F - - ()
Min Temperature 30 °F - - ()
Degree Days  
Heating Degree Days 30    
Moisture  
Dew Point 28 °F    
Average Humidity 75    
Maximum Humidity 93    
Minimum Humidity 65    
Precipitation  
Precipitation 0.00 in - - ()
Sea Level Pressure  
Sea Level Pressure 30.43 in    
Wind  
Wind Speed 8 mph (West)    
Max Wind Speed 16 mph    
Max Gust Speed 23 mph    
Visibility 10 miles    
Events      
T = Trace of Precipitation, MM = Missing Value Source: NWS Daily Summary

Daily Weather History Graph

Daily Weather History Graph

Search for Another Location

Airport or City:

Trip Planner

Search our weather history database for the weather conditions in past years. The results will help you decide how hot, cold, wet, or windy it might be!

Date:

Astronomy

Feb. 01, 2014 Rise Set
Actual Time 9:29 AM AKST 6:06 PM AKST
Civil Twilight 8:47 AM AKST 6:47 PM AKST
Nautical Twilight 8:02 AM AKST 7:32 PM AKST
Astronomical Twilight 7:18 AM AKST 8:16 PM AKST
Moon 9:50 AM AKST (2/1) 9:35 PM AKST (2/1)
Length of Visible Light 9h 59m
Length of Day
8h 37m
Waxing Crescent, 6% of the Moon is Illuminated
Feb 1
Waxing Crescent
Feb 6
First Quarter
Feb 14
Full
Feb 22
Last Quarter
Feb 28
New

Hourly Weather History & Observations

Time (AKST) Temp. Windchill Dew Point Humidity Pressure Visibility Wind Dir Wind Speed Gust Speed Precip Events Conditions
12:16 AM 35.6 °F - 33.8 °F 93% 30.36 in 10.0 mi Calm Calm - N/A   Overcast
12:36 AM 35.6 °F - 33.8 °F 93% 30.36 in 10.0 mi Calm Calm - N/A   Overcast
12:56 AM 35.6 °F 32.8 °F 33.8 °F 93% 30.37 in 10.0 mi North 3.5 mph - N/A   Overcast
1:16 AM 37.4 °F 30.8 °F 33.8 °F 87% 30.37 in 10.0 mi WSW 9.2 mph - N/A   Overcast
1:36 AM 37.4 °F - 33.8 °F 87% 30.37 in 10.0 mi Calm Calm - N/A   Overcast
1:56 AM 37.4 °F 32.1 °F 32.0 °F 81% 30.38 in 10.0 mi West 6.9 mph - N/A   Overcast
2:16 AM 37.4 °F 31.4 °F 33.8 °F 87% 30.38 in 10.0 mi WSW 8.1 mph - N/A   Overcast
2:36 AM 37.4 °F 29.8 °F 33.8 °F 87% 30.38 in 10.0 mi WSW 11.5 mph - N/A   Overcast
2:56 AM 39.2 °F 33.6 °F 32.0 °F 75% 30.39 in 10.0 mi West 8.1 mph - N/A   Overcast
3:16 AM 37.4 °F 32.8 °F 33.8 °F 87% 30.39 in 10.0 mi West 5.8 mph - N/A   Overcast
3:36 AM 37.4 °F 32.1 °F 30.2 °F 75% 30.39 in 10.0 mi West 6.9 mph - N/A   Overcast
3:56 AM 37.4 °F 32.8 °F 30.2 °F 75% 30.40 in 10.0 mi WNW 5.8 mph - N/A   Overcast
4:16 AM 37.4 °F 32.8 °F 30.2 °F 75% 30.39 in 10.0 mi West 5.8 mph - N/A   Overcast
4:36 AM 37.4 °F 31.4 °F 32.0 °F 81% 30.40 in 10.0 mi WSW 8.1 mph - N/A   Overcast
4:56 AM 37.4 °F 30.8 °F 32.0 °F 81% 30.40 in 10.0 mi West 9.2 mph - N/A   Overcast
5:16 AM 37.4 °F 31.4 °F 30.2 °F 75% 30.40 in 10.0 mi West 8.1 mph - N/A   Overcast
5:36 AM 37.4 °F 30.3 °F 30.2 °F 75% 30.40 in 10.0 mi West 10.4 mph 16.1 mph N/A   Overcast
5:56 AM 37.4 °F 30.8 °F 30.2 °F 75% 30.41 in 10.0 mi WSW 9.2 mph - N/A   Overcast
6:16 AM 37.4 °F 29.8 °F 30.2 °F 75% 30.41 in 10.0 mi West 11.5 mph - N/A   Overcast
6:36 AM 37.4 °F 29.8 °F 30.2 °F 75% 30.41 in 10.0 mi West 11.5 mph 17.3 mph N/A   Overcast
6:56 AM 37.4 °F 30.3 °F 30.2 °F 75% 30.41 in 10.0 mi West 10.4 mph - N/A   Scattered Clouds
7:16 AM 37.4 °F 29.8 °F 28.4 °F 70% 30.41 in 10.0 mi West 11.5 mph 16.1 mph N/A   Clear
7:36 AM 37.4 °F 29.3 °F 28.4 °F 70% 30.42 in 10.0 mi West 12.7 mph 20.7 mph N/A   Scattered Clouds
7:56 AM 37.4 °F 30.3 °F 28.4 °F 70% 30.42 in 10.0 mi West 10.4 mph - N/A   Overcast
8:16 AM 37.4 °F 31.4 °F 30.2 °F 75% 30.43 in 10.0 mi West 8.1 mph 18.4 mph N/A   Overcast
8:36 AM 37.4 °F 29.8 °F 30.2 °F 75% 30.43 in 10.0 mi West 11.5 mph - N/A   Mostly Cloudy
8:56 AM 35.6 °F 28.6 °F 28.4 °F 75% 30.43 in 10.0 mi West 9.2 mph - N/A   Mostly Cloudy
9:16 AM 35.6 °F 28.0 °F 28.4 °F 75% 30.44 in 10.0 mi West 10.4 mph - N/A   Overcast
9:36 AM 35.6 °F 28.0 °F 28.4 °F 75% 30.44 in 10.0 mi West 10.4 mph - N/A   Overcast
9:56 AM 35.6 °F 27.1 °F 28.4 °F 75% 30.44 in 10.0 mi West 12.7 mph 18.4 mph N/A   Overcast
10:16 AM 35.6 °F 27.5 °F 26.6 °F 70% 30.44 in 10.0 mi West 11.5 mph - N/A   Overcast
10:36 AM 35.6 °F 29.2 °F 28.4 °F 75% 30.45 in 10.0 mi West 8.1 mph - N/A   Mostly Cloudy
10:56 AM 35.6 °F 28.6 °F 26.6 °F 70% 30.45 in 10.0 mi West 9.2 mph - N/A   Scattered Clouds
11:16 AM 35.6 °F 28.0 °F 28.4 °F 75% 30.45 in 10.0 mi West 10.4 mph - N/A   Scattered Clouds
11:36 AM 35.6 °F 28.6 °F 26.6 °F 70% 30.46 in 10.0 mi WSW 9.2 mph - N/A   Mostly Cloudy
11:56 AM 35.6 °F 28.0 °F 26.6 °F 70% 30.46 in 10.0 mi West 10.4 mph 16.1 mph N/A   Overcast
12:16 PM 35.6 °F 29.2 °F 26.6 °F 70% 30.47 in 10.0 mi West 8.1 mph 17.3 mph N/A   Overcast
12:36 PM 35.6 °F 26.6 °F 26.6 °F 70% 30.47 in 10.0 mi WSW 13.8 mph 19.6 mph N/A   Overcast
12:56 PM 35.6 °F 28.0 °F 26.6 °F 70% 30.47 in 10.0 mi West 10.4 mph - N/A   Overcast
1:16 PM 35.6 °F 28.0 °F 26.6 °F 70% 30.47 in 10.0 mi West 10.4 mph - N/A   Overcast
1:36 PM 35.6 °F 28.0 °F 26.6 °F 70% 30.47 in 10.0 mi West 10.4 mph - N/A   Mostly Cloudy
1:56 PM 35.6 °F 27.5 °F 24.8 °F 65% 30.46 in 10.0 mi West 11.5 mph - N/A   Mostly Cloudy
2:16 PM 35.6 °F 27.5 °F 24.8 °F 65% 30.46 in 10.0 mi West 11.5 mph - N/A   Partly Cloudy
2:36 PM 35.6 °F 27.1 °F 26.6 °F 70% 30.46 in 10.0 mi West 12.7 mph - N/A   Partly Cloudy
2:56 PM 35.6 °F 28.0 °F 26.6 °F 70% 30.46 in 10.0 mi West 10.4 mph - N/A   Clear
3:16 PM 35.6 °F 27.5 °F 24.8 °F 65% 30.46 in 10.0 mi West 11.5 mph 18.4 mph N/A   Clear
3:36 PM 35.6 °F 27.1 °F 24.8 °F 65% 30.45 in 10.0 mi West 12.7 mph 18.4 mph N/A   Clear
3:56 PM 35.6 °F 29.2 °F 24.8 °F 65% 30.45 in 10.0 mi West 8.1 mph - N/A   Clear
4:16 PM 35.6 °F 29.2 °F 26.6 °F 70% 30.45 in 10.0 mi WSW 8.1 mph - N/A   Scattered Clouds
4:36 PM 35.6 °F 29.9 °F 26.6 °F 70% 30.45 in 10.0 mi West 6.9 mph - N/A   Scattered Clouds
4:56 PM 35.6 °F 29.9 °F 26.6 °F 70% 30.45 in 10.0 mi West 6.9 mph - N/A   Partly Cloudy
5:16 PM 33.8 °F 23.9 °F 26.6 °F 75% 30.45 in 10.0 mi WSW 15.0 mph - N/A   Clear
5:36 PM 35.6 °F 25.9 °F 26.6 °F 70% 30.45 in 10.0 mi WSW 16.1 mph 20.7 mph N/A   Partly Cloudy
5:56 PM 35.6 °F 27.5 °F 24.8 °F 65% 30.45 in 10.0 mi West 11.5 mph 16.1 mph N/A   Scattered Clouds
6:16 PM 35.6 °F 27.5 °F 24.8 °F 65% 30.45 in 10.0 mi WSW 11.5 mph 19.6 mph N/A   Partly Cloudy
6:36 PM 33.8 °F 24.8 °F 26.6 °F 75% 30.45 in 10.0 mi WSW 12.7 mph 17.3 mph N/A   Mostly Cloudy
6:56 PM 33.8 °F 24.3 °F 26.6 °F 75% 30.45 in 10.0 mi West 13.8 mph 23.0 mph N/A   Scattered Clouds
7:16 PM 33.8 °F 23.5 °F 26.6 °F 75% 30.45 in 10.0 mi West 16.1 mph 21.9 mph N/A   Mostly Cloudy
7:36 PM 33.8 °F 25.3 °F 26.6 °F 75% 30.45 in 10.0 mi West 11.5 mph 21.9 mph N/A   Mostly Cloudy
7:56 PM 33.8 °F 23.5 °F 24.8 °F 70% 30.45 in 10.0 mi WSW 16.1 mph 20.7 mph N/A   Mostly Cloudy
8:16 PM 33.8 °F 24.3 °F 26.6 °F 75% 30.45 in 10.0 mi West 13.8 mph 20.7 mph N/A   Overcast
8:36 PM 33.8 °F 24.8 °F 24.8 °F 70% 30.45 in 10.0 mi West 12.7 mph 18.4 mph N/A   Partly Cloudy
8:56 PM 32.0 °F 24.8 °F 24.8 °F 75% 30.46 in 10.0 mi West 8.1 mph - N/A   Clear
9:16 PM 32.0 °F 23.0 °F 24.8 °F 75% 30.45 in 10.0 mi West 11.5 mph 18.4 mph N/A   Partly Cloudy
9:36 PM 32.0 °F 21.6 °F 26.6 °F 80% 30.45 in 10.0 mi WSW 15.0 mph - N/A   Scattered Clouds
9:56 PM 32.0 °F 24.2 °F 24.8 °F 75% 30.45 in 10.0 mi WSW 9.2 mph 16.1 mph N/A   Mostly Cloudy
10:16 PM 30.2 °F 21.9 °F 24.8 °F 80% 30.45 in 10.0 mi West 9.2 mph - N/A   Scattered Clouds
10:36 PM 30.2 °F 21.9 °F 23.0 °F 75% 30.45 in 10.0 mi West 9.2 mph - N/A   Partly Cloudy
10:56 PM 32.0 °F 23.0 °F 24.8 °F 75% 30.45 in 10.0 mi West 11.5 mph 17.3 mph N/A   Scattered Clouds
11:16 PM 30.2 °F 21.3 °F 24.8 °F 80% 30.45 in 10.0 mi West 10.4 mph - N/A   Scattered Clouds
11:36 PM 30.2 °F 21.3 °F 24.8 °F 80% 30.44 in 10.0 mi West 10.4 mph - N/A   Clear
11:56 PM 30.2 °F 21.9 °F 24.8 °F 80% 30.44 in 10.0 mi West 9.2 mph - N/A   Clear